createdAt,value
2022-08-26T00:01:54.951Z,22.64
2022-08-26T00:04:23.838Z,22.63
2022-08-26T00:06:51.497Z,22.62
2022-08-26T00:09:18.708Z,22.61
2022-08-26T00:11:45.927Z,22.60
2022-08-26T00:14:14.154Z,22.57
2022-08-26T00:16:47.144Z,22.55
2022-08-26T00:19:20.244Z,22.53
2022-08-26T00:21:48.674Z,22.52
2022-08-26T00:24:18.295Z,22.58
2022-08-26T00:26:45.063Z,22.61
2022-08-26T00:29:12.773Z,22.57
2022-08-26T00:31:40.789Z,22.55
2022-08-26T00:34:09.606Z,22.54
2022-08-26T00:36:40.689Z,22.52
2022-08-26T00:39:08.435Z,22.51
2022-08-26T00:41:38.261Z,22.50
2022-08-26T00:44:06.825Z,22.47
2022-08-26T00:46:46.969Z,22.43
2022-08-26T00:49:19.905Z,22.38
2022-08-26T00:51:52.569Z,22.33
2022-08-26T00:54:24.262Z,22.31
2022-08-26T00:57:02.758Z,22.36
2022-08-26T00:59:32.760Z,22.38
2022-08-26T01:02:02.752Z,22.35
2022-08-26T01:04:32.042Z,22.34
2022-08-26T01:06:58.997Z,22.33
2022-08-26T01:09:27.238Z,22.31
2022-08-26T01:11:58.266Z,22.27
2022-08-26T01:14:30.131Z,22.24
2022-08-26T01:16:56.883Z,22.20
2022-08-26T01:19:31.971Z,22.18
2022-08-26T01:22:40.210Z,22.15
2022-08-26T01:25:08.283Z,22.08
2022-08-26T01:27:35.553Z,22.06
2022-08-26T01:30:05.291Z,22.11
2022-08-26T01:32:33.647Z,22.11
2022-08-26T01:35:01.159Z,22.07
2022-08-26T01:37:34.207Z,22.04
2022-08-26T01:40:01.201Z,22.02
2022-08-26T01:42:28.698Z,22.00
2022-08-26T01:45:05.557Z,21.98
2022-08-26T01:47:35.227Z,21.95
2022-08-26T01:50:07.069Z,21.90
2022-08-26T01:52:38.604Z,21.86
2022-08-26T01:55:06.839Z,21.83
2022-08-26T01:57:34.739Z,21.79
2022-08-26T02:00:09.641Z,21.78
2022-08-26T02:02:37.360Z,21.83
2022-08-26T02:05:07.503Z,21.83
2022-08-26T02:07:34.532Z,21.79
2022-08-26T02:10:01.272Z,21.76
2022-08-26T02:12:28.470Z,21.74
2022-08-26T02:15:00.165Z,21.72
2022-08-26T02:17:43.580Z,21.68
2022-08-26T02:20:14.927Z,21.65
2022-08-26T02:22:43.121Z,21.59
2022-08-26T02:25:25.560Z,21.56
2022-08-26T02:27:53.433Z,21.54
2022-08-26T02:30:32.282Z,21.52
2022-08-26T02:33:03.989Z,21.57
2022-08-26T02:35:34.897Z,21.56
2022-08-26T02:38:03.054Z,21.51
2022-08-26T02:40:41.165Z,21.47
2022-08-26T02:43:09.752Z,21.43
2022-08-26T02:45:37.542Z,21.41
2022-08-26T02:48:16.628Z,21.38
2022-08-26T02:50:45.969Z,21.33
2022-08-26T02:53:13.556Z,21.29
2022-08-26T02:55:41.109Z,21.26
2022-08-26T02:58:09.759Z,21.24
2022-08-26T03:00:38.779Z,21.22
2022-08-26T03:03:23.468Z,21.28
2022-08-26T03:05:51.412Z,21.29
2022-08-26T03:08:18.892Z,21.26
2022-08-26T03:10:48.128Z,21.22
2022-08-26T03:13:16.329Z,21.20
2022-08-26T03:15:44.273Z,21.16
2022-08-26T03:18:13.513Z,21.12
2022-08-26T03:20:40.203Z,21.09
2022-08-26T03:23:07.889Z,21.05
2022-08-26T03:25:35.932Z,21.01
2022-08-26T03:28:03.578Z,20.95
2022-08-26T03:30:45.220Z,20.90
2022-08-26T03:33:13.484Z,20.88
2022-08-26T03:35:42.130Z,20.92
2022-08-26T03:38:09.705Z,20.91
2022-08-26T03:40:37.973Z,20.87
2022-08-26T03:43:09.602Z,20.84
2022-08-26T03:45:37.347Z,20.82
2022-08-26T03:48:05.423Z,20.79
2022-08-26T03:50:34.214Z,20.76
2022-08-26T03:53:04.260Z,20.73
2022-08-26T03:55:34.180Z,20.71
2022-08-26T03:58:02.296Z,20.68
2022-08-26T04:00:29.776Z,20.65
2022-08-26T04:02:56.628Z,20.64
2022-08-26T04:05:24.277Z,20.72
2022-08-26T04:07:51.669Z,20.73
2022-08-26T04:10:28.430Z,20.70
2022-08-26T04:12:55.838Z,20.68
2022-08-26T04:15:27.275Z,20.67
2022-08-26T04:17:55.974Z,20.65
2022-08-26T04:20:24.935Z,20.63
2022-08-26T04:22:52.190Z,20.62
2022-08-26T04:25:19.093Z,20.62
2022-08-26T04:27:48.239Z,20.63
2022-08-26T04:30:16.812Z,20.71
2022-08-26T04:32:44.238Z,20.73
2022-08-26T04:35:11.405Z,20.73
2022-08-26T04:37:38.632Z,20.71
2022-08-26T04:40:07.713Z,20.72
2022-08-26T04:42:35.571Z,20.70
2022-08-26T04:45:05.632Z,20.70
2022-08-26T04:47:32.703Z,20.69
2022-08-26T04:50:00.176Z,20.68
2022-08-26T04:52:29.088Z,20.67
2022-08-26T04:54:57.911Z,20.67
2022-08-26T04:57:24.674Z,20.74
2022-08-26T04:59:51.347Z,20.77
2022-08-26T05:02:18.212Z,20.77
2022-08-26T05:04:45.782Z,20.77
2022-08-26T05:07:13.073Z,20.76
2022-08-26T05:09:40.980Z,20.77
2022-08-26T05:12:09.613Z,20.77
2022-08-26T05:14:36.328Z,20.76
2022-08-26T05:17:03.734Z,20.76
2022-08-26T05:19:31.718Z,20.76
2022-08-26T05:21:59.856Z,20.77
2022-08-26T05:24:26.581Z,20.83
2022-08-26T05:26:54.242Z,20.86
2022-08-26T05:29:23.402Z,20.87
2022-08-26T05:31:53.627Z,20.85
2022-08-26T05:34:23.445Z,20.85
2022-08-26T05:36:52.737Z,20.84
2022-08-26T05:39:20.128Z,20.84
2022-08-26T05:41:47.805Z,20.84
2022-08-26T05:44:17.765Z,20.84
2022-08-26T05:46:46.052Z,20.83
2022-08-26T05:49:16.020Z,20.82
2022-08-26T05:51:47.544Z,20.88
2022-08-26T05:54:21.906Z,20.90
2022-08-26T05:56:50.966Z,20.91
2022-08-26T05:59:21.283Z,20.89
2022-08-26T06:01:51.306Z,20.90
2022-08-26T06:04:18.071Z,20.89
2022-08-26T06:06:47.375Z,20.89
2022-08-26T06:09:14.354Z,20.89
2022-08-26T06:11:44.376Z,20.88
2022-08-26T06:14:11.241Z,20.89
2022-08-26T06:16:41.298Z,20.97
2022-08-26T06:19:10.538Z,21.02
2022-08-26T06:21:41.313Z,21.04
2022-08-26T06:24:30.441Z,21.03
2022-08-26T06:27:01.625Z,21.04
2022-08-26T06:29:36.101Z,21.07
2022-08-26T06:32:04.986Z,21.10
2022-08-26T06:34:31.799Z,21.12
2022-08-26T06:37:02.614Z,21.16
2022-08-26T06:39:31.780Z,21.27
2022-08-26T06:42:00.500Z,21.33
2022-08-26T06:44:27.678Z,21.36
2022-08-26T06:46:55.122Z,21.37
2022-08-26T06:49:26.771Z,21.38
2022-08-26T06:51:59.702Z,21.40
2022-08-26T06:54:30.844Z,21.41
2022-08-26T06:56:57.761Z,21.42
2022-08-26T06:59:25.848Z,21.46
2022-08-26T07:01:53.522Z,21.56
2022-08-26T07:04:22.354Z,21.64
2022-08-26T07:06:53.372Z,21.68
2022-08-26T07:09:26.848Z,21.69
2022-08-26T07:11:58.591Z,21.72
2022-08-26T07:14:26.408Z,21.76
2022-08-26T07:16:54.072Z,21.79
2022-08-26T07:19:30.565Z,21.83
2022-08-26T07:22:03.882Z,21.86
2022-08-26T07:24:33.279Z,21.91
2022-08-26T07:27:06.871Z,22.03
2022-08-26T07:29:37.813Z,22.10
2022-08-26T07:32:06.520Z,22.13
2022-08-26T07:34:33.622Z,22.17
2022-08-26T07:37:01.405Z,22.20
2022-08-26T07:39:31.637Z,22.24
2022-08-26T07:42:01.925Z,22.27
2022-08-26T07:44:35.450Z,22.30
2022-08-26T07:47:02.360Z,22.33
2022-08-26T07:49:29.968Z,22.39
2022-08-26T07:51:57.054Z,22.51
2022-08-26T07:54:24.736Z,22.60
2022-08-26T07:56:54.466Z,22.65
2022-08-26T07:59:23.398Z,22.68
2022-08-26T08:01:50.322Z,22.73
2022-08-26T08:04:21.880Z,22.79
2022-08-26T08:06:53.616Z,22.85
2022-08-26T08:09:20.552Z,22.88
2022-08-26T08:11:50.067Z,22.93
2022-08-26T08:14:22.369Z,22.96
2022-08-26T08:16:51.275Z,23.00
2022-08-26T08:19:22.099Z,23.03
2022-08-26T08:21:49.335Z,23.10
2022-08-26T08:24:16.539Z,23.25
2022-08-26T08:26:43.980Z,23.33
2022-08-26T08:29:10.789Z,23.37
2022-08-26T08:31:56.640Z,23.42
2022-08-26T08:34:26.260Z,23.48
2022-08-26T08:36:54.193Z,23.51
2022-08-26T08:39:22.439Z,23.56
2022-08-26T08:42:07.617Z,23.62
2022-08-26T08:44:41.171Z,23.69
2022-08-26T08:47:31.375Z,23.75
2022-08-26T08:50:05.636Z,23.80
2022-08-26T08:52:37.719Z,23.85
2022-08-26T08:55:11.151Z,23.90
2022-08-26T08:58:02.444Z,23.96
2022-08-26T09:00:39.777Z,24.04
2022-08-26T09:03:27.722Z,24.10
2022-08-26T09:05:58.961Z,24.18
2022-08-26T09:08:30.337Z,24.25
2022-08-26T09:11:00.590Z,24.32
2022-08-26T09:13:29.242Z,24.38
2022-08-26T09:16:19.088Z,24.43
2022-08-26T09:19:10.959Z,24.48
2022-08-26T09:21:38.389Z,24.53
2022-08-26T09:24:07.159Z,24.56
2022-08-26T09:26:39.978Z,24.60
2022-08-26T09:29:15.960Z,24.66
2022-08-26T09:31:42.814Z,24.72
2022-08-26T09:34:12.595Z,24.78
2022-08-26T09:36:51.479Z,24.85
2022-08-26T09:39:24.101Z,24.93
2022-08-26T09:42:11.826Z,25.02
2022-08-26T09:44:53.887Z,25.06
2022-08-26T09:47:26.749Z,25.05
2022-08-26T09:50:28.818Z,25.04
2022-08-26T09:53:28.500Z,25.04
2022-08-26T09:56:28.504Z,25.04
2022-08-26T09:58:56.892Z,25.04
2022-08-26T10:01:23.529Z,25.03
2022-08-26T10:03:51.491Z,25.03
2022-08-26T10:06:20.986Z,25.08
2022-08-26T10:08:52.490Z,25.19
2022-08-26T10:11:33.100Z,25.24
2022-08-26T10:14:11.653Z,25.34
2022-08-26T10:16:50.781Z,25.46
2022-08-26T10:19:25.454Z,25.60
2022-08-26T10:22:18.007Z,25.76
2022-08-26T10:24:51.921Z,25.92
2022-08-26T10:27:34.929Z,26.05
2022-08-26T10:30:10.529Z,26.16
2022-08-26T10:32:41.280Z,26.28
2022-08-26T10:35:13.557Z,26.39
2022-08-26T10:37:54.431Z,26.51
2022-08-26T10:40:53.475Z,26.65
2022-08-26T10:43:28.583Z,26.76
2022-08-26T10:46:03.517Z,26.89
2022-08-26T10:48:48.156Z,27.02
2022-08-26T10:51:20.082Z,27.17
2022-08-26T10:53:55.953Z,27.28
2022-08-26T10:56:41.337Z,27.40
2022-08-26T10:59:52.778Z,27.48
2022-08-26T11:02:33.103Z,27.57
2022-08-26T11:05:06.088Z,27.63
2022-08-26T11:07:47.676Z,27.69
2022-08-26T11:10:19.356Z,27.69
2022-08-26T11:12:49.139Z,27.64
2022-08-26T11:15:26.732Z,27.67
2022-08-26T11:18:03.202Z,27.66
2022-08-26T11:20:42.250Z,27.57
2022-08-26T11:23:22.535Z,27.44
2022-08-26T11:26:01.390Z,27.41
2022-08-26T11:28:38.341Z,27.52
2022-08-26T11:31:10.212Z,27.66
2022-08-26T11:34:03.266Z,27.78
2022-08-26T11:36:42.307Z,27.82
2022-08-26T11:39:25.763Z,27.86
2022-08-26T11:41:55.869Z,27.87
2022-08-26T11:44:38.012Z,27.88
2022-08-26T11:47:05.901Z,27.90
2022-08-26T11:49:39.038Z,27.90
2022-08-26T11:52:26.657Z,27.88
2022-08-26T11:55:00.747Z,27.85
2022-08-26T11:57:28.967Z,27.87
2022-08-26T11:59:56.927Z,27.94
2022-08-26T12:02:25.050Z,28.04
2022-08-26T12:04:54.920Z,28.17
2022-08-26T12:07:28.854Z,28.31
2022-08-26T14:17:33.119Z,29.76
2022-08-26T14:19:59.997Z,29.83
2022-08-26T14:22:26.815Z,29.82
2022-08-26T14:24:54.222Z,29.83
2022-08-26T14:27:21.060Z,29.84
2022-08-26T14:29:47.987Z,29.84
2022-08-26T14:32:24.998Z,29.84
2022-08-26T14:34:52.283Z,29.86
2022-08-26T14:37:19.795Z,29.87
2022-08-26T14:39:47.154Z,29.89
2022-08-26T14:42:17.975Z,29.92
2022-08-26T14:44:48.823Z,29.95
2022-08-26T14:47:15.686Z,29.97
2022-08-26T14:49:42.704Z,29.98
2022-08-26T14:52:09.637Z,30.00
2022-08-26T14:54:37.553Z,30.03
2022-08-26T14:57:08.118Z,30.05
2022-08-26T14:59:43.418Z,30.08
2022-08-26T15:02:22.214Z,30.10
2022-08-26T15:05:01.646Z,30.11
2022-08-26T15:07:28.450Z,30.11
2022-08-26T15:09:55.276Z,30.11
2022-08-26T15:12:22.213Z,30.10
2022-08-26T15:14:49.056Z,30.11
2022-08-26T15:17:15.966Z,30.10
2022-08-26T15:19:42.896Z,30.07
2022-08-26T15:22:09.837Z,30.05
2022-08-26T15:24:36.775Z,30.04
2022-08-26T15:27:03.814Z,30.02
2022-08-26T15:29:30.687Z,30.01
2022-08-26T15:32:01.572Z,30.00
2022-08-26T15:34:28.447Z,30.01
2022-08-26T15:37:07.354Z,29.99
2022-08-26T15:39:34.751Z,29.99
2022-08-26T15:42:02.427Z,29.97
2022-08-26T15:44:29.260Z,29.99
2022-08-26T15:46:58.677Z,30.01
2022-08-26T15:49:26.556Z,30.00
2022-08-26T15:51:53.415Z,29.99
2022-08-26T15:54:22.740Z,29.99
2022-08-26T15:56:52.751Z,29.98
2022-08-26T15:59:21.835Z,29.96
2022-08-26T16:01:48.888Z,29.95
2022-08-26T16:04:15.805Z,29.96
2022-08-26T16:06:43.714Z,29.94
2022-08-26T16:09:11.574Z,29.93
2022-08-26T16:11:38.482Z,29.91
2022-08-26T16:14:08.452Z,29.89
2022-08-26T16:16:40.002Z,29.86
2022-08-26T16:19:08.536Z,29.83
2022-08-26T16:21:35.592Z,29.79
2022-08-26T16:24:03.613Z,29.77
2022-08-26T16:26:33.216Z,29.74
2022-08-26T16:29:08.756Z,29.71
2022-08-26T16:31:38.220Z,29.66
2022-08-26T16:34:06.622Z,29.61
2022-08-26T16:36:34.834Z,29.57
2022-08-26T16:39:02.069Z,29.52
2022-08-26T16:41:31.438Z,29.48
2022-08-26T16:43:59.154Z,29.45
2022-08-26T16:46:27.859Z,29.40
2022-08-26T16:48:56.507Z,29.36
2022-08-26T16:51:27.356Z,29.33
2022-08-26T16:53:56.436Z,29.28
2022-08-26T16:56:30.584Z,29.25
2022-08-26T16:59:01.037Z,29.19
2022-08-26T17:01:28.025Z,29.15
2022-08-26T17:03:54.977Z,29.10
2022-08-26T17:06:21.829Z,29.08
2022-08-26T17:08:48.731Z,29.04
2022-08-26T17:11:15.737Z,29.02
2022-08-26T17:13:43.072Z,28.98
2022-08-26T17:16:11.957Z,28.94
2022-08-26T17:18:38.918Z,28.91
2022-08-26T17:21:12.137Z,28.87
2022-08-26T17:23:41.207Z,28.83
2022-08-26T17:26:09.277Z,28.79
2022-08-26T17:28:36.207Z,28.74
2022-08-26T17:31:04.752Z,28.70
2022-08-26T17:33:31.983Z,28.66
2022-08-26T17:35:59.789Z,28.61
2022-08-26T17:38:28.004Z,28.57
2022-08-26T17:40:56.542Z,28.52
2022-08-26T17:43:24.432Z,28.48
2022-08-26T17:45:51.568Z,28.42
2022-08-26T17:48:18.460Z,28.38
2022-08-26T17:50:49.296Z,28.34
2022-08-26T17:53:18.835Z,28.30
2022-08-26T17:55:47.527Z,28.26
2022-08-26T17:58:16.275Z,28.22
2022-08-26T18:00:50.080Z,28.17
2022-08-26T18:03:18.653Z,28.13
2022-08-26T18:05:53.340Z,28.06
2022-08-26T18:08:21.157Z,28.02
2022-08-26T18:10:48.020Z,27.98
2022-08-26T18:13:15.905Z,27.95
2022-08-26T18:15:46.746Z,27.92
2022-08-26T18:18:14.943Z,27.88
2022-08-26T18:20:44.313Z,27.85
2022-08-26T18:23:12.458Z,27.81
2022-08-26T18:25:43.395Z,27.78
2022-08-26T18:28:10.702Z,27.74
2022-08-26T18:30:37.987Z,27.73
2022-08-26T18:33:04.957Z,27.69
2022-08-26T18:35:31.942Z,27.64
2022-08-26T18:38:01.321Z,27.60
2022-08-26T18:40:40.169Z,27.56
2022-08-26T18:43:07.042Z,27.50
2022-08-26T18:45:34.770Z,27.44
2022-08-26T18:48:03.005Z,27.38
2022-08-26T18:50:29.889Z,27.33
2022-08-26T18:52:56.671Z,27.29
2022-08-26T18:55:23.837Z,27.24
2022-08-26T18:57:51.452Z,27.21
2022-08-26T19:00:18.461Z,27.18
2022-08-26T19:02:47.022Z,27.14
2022-08-26T19:05:20.021Z,27.08
2022-08-26T19:07:47.952Z,27.04
2022-08-26T19:10:15.066Z,27.00
2022-08-26T19:12:42.503Z,26.95
2022-08-26T19:15:11.557Z,26.90
2022-08-26T19:17:38.480Z,26.84
2022-08-26T19:20:06.310Z,26.79
2022-08-26T19:22:33.421Z,26.75
2022-08-26T19:25:01.537Z,26.71
2022-08-26T19:27:28.372Z,26.68
2022-08-26T19:29:56.582Z,26.66
2022-08-26T19:32:24.546Z,26.61
2022-08-26T19:34:52.587Z,26.56
2022-08-26T19:37:20.731Z,26.52
2022-08-26T19:39:48.561Z,26.49
2022-08-26T19:42:16.751Z,26.47
2022-08-26T19:45:02.314Z,26.44
2022-08-26T19:47:29.192Z,26.41
2022-08-26T19:49:56.963Z,26.39
2022-08-26T19:52:30.091Z,26.37
2022-08-26T19:54:58.565Z,26.34
2022-08-26T19:57:25.484Z,26.34
2022-08-26T19:59:52.289Z,26.32
2022-08-26T20:02:19.917Z,26.31
2022-08-26T20:04:47.066Z,26.28
2022-08-26T20:07:18.067Z,26.25
2022-08-26T20:09:47.103Z,26.23
2022-08-26T20:12:15.298Z,26.18
2022-08-26T20:14:42.511Z,26.14
2022-08-26T20:17:09.377Z,26.10
2022-08-26T20:19:54.982Z,26.07
2022-08-26T20:22:22.304Z,26.02
2022-08-26T20:24:50.355Z,25.99
2022-08-26T20:27:17.125Z,25.97
2022-08-26T20:29:44.281Z,25.93
2022-08-26T20:32:12.160Z,25.90
2022-08-26T20:34:39.832Z,25.86
2022-08-26T20:37:08.625Z,25.81
2022-08-26T20:39:36.241Z,25.77
2022-08-26T20:42:03.484Z,25.75
2022-08-26T20:44:30.484Z,25.73
2022-08-26T20:46:59.379Z,25.69
2022-08-26T20:49:28.416Z,25.64
2022-08-26T20:51:55.645Z,25.60
2022-08-26T20:54:28.138Z,25.56
2022-08-26T20:56:57.639Z,25.52
2022-08-26T20:59:25.980Z,25.48
2022-08-26T21:01:53.271Z,25.44
2022-08-26T21:04:23.868Z,25.40
2022-08-26T21:06:52.749Z,25.36
2022-08-26T21:09:22.322Z,25.32
2022-08-26T21:11:50.136Z,25.28
2022-08-26T21:14:17.560Z,25.24
2022-08-26T21:16:45.566Z,25.21
2022-08-26T21:19:14.732Z,25.18
2022-08-26T21:21:42.232Z,25.13
2022-08-26T21:24:10.277Z,25.08
2022-08-26T21:26:37.526Z,25.05
2022-08-26T21:29:05.409Z,25.02
2022-08-26T21:31:32.404Z,25.00
2022-08-26T21:33:59.971Z,24.97
2022-08-26T21:36:27.109Z,24.95
2022-08-26T21:38:59.632Z,24.93
2022-08-26T21:41:27.663Z,24.92
2022-08-26T21:44:01.375Z,24.88
2022-08-26T21:46:30.371Z,24.84
2022-08-26T21:49:01.943Z,24.79
2022-08-26T21:51:33.214Z,24.74
2022-08-26T21:54:01.319Z,24.71
2022-08-26T21:56:31.535Z,24.68
2022-08-26T21:59:00.145Z,24.64
2022-08-26T22:01:32.093Z,24.61
2022-08-26T22:03:59.169Z,24.59
2022-08-26T22:06:28.510Z,24.56
2022-08-26T22:08:56.543Z,24.53
2022-08-26T22:11:25.476Z,24.50
2022-08-26T22:13:52.860Z,24.44
2022-08-26T22:16:19.850Z,24.39
2022-08-26T22:18:47.053Z,24.33
2022-08-26T22:21:20.196Z,24.27
2022-08-26T22:23:47.738Z,24.22
2022-08-26T22:26:25.597Z,24.18
2022-08-26T22:28:57.467Z,24.14
2022-08-26T22:31:37.176Z,24.09
2022-08-26T22:34:07.683Z,24.04
2022-08-26T22:36:34.513Z,24.00
2022-08-26T22:39:01.337Z,23.98
2022-08-26T22:41:28.164Z,23.94
2022-08-26T22:43:54.936Z,23.93
2022-08-26T22:46:25.234Z,23.88
2022-08-26T22:48:54.289Z,23.85
2022-08-26T22:51:22.178Z,23.80
2022-08-26T22:53:49.250Z,23.76
2022-08-26T22:56:18.557Z,23.71
2022-08-26T22:58:47.478Z,23.69
2022-08-26T23:01:15.658Z,23.68
2022-08-26T23:03:43.160Z,23.68
2022-08-26T23:06:10.793Z,23.68
2022-08-26T23:08:39.554Z,23.66
2022-08-26T23:11:11.424Z,23.65
2022-08-26T23:13:39.245Z,23.64
2022-08-26T23:16:11.060Z,23.60
2022-08-26T23:18:38.677Z,23.57
2022-08-26T23:21:06.163Z,23.52
2022-08-26T23:23:33.076Z,23.48
2022-08-26T23:26:03.259Z,23.44
2022-08-26T23:28:32.757Z,23.41
2022-08-26T23:31:00.335Z,23.38
2022-08-26T23:33:47.285Z,23.33
2022-08-26T23:36:17.679Z,23.28
2022-08-26T23:38:52.985Z,23.23
2022-08-26T23:41:22.361Z,23.19
2022-08-26T23:43:49.731Z,23.15
2022-08-26T23:46:16.442Z,23.11
2022-08-26T23:48:43.407Z,23.09
2022-08-26T23:51:29.054Z,23.07
2022-08-26T23:53:56.329Z,23.04
2022-08-26T23:56:23.174Z,23.03
2022-08-26T23:58:49.851Z,23.02
